sensor_id;sensor_type;location;lat;lon;timestamp;temperature;humidity
40638;DHT22;26336;44.696;10.622;2023-07-30T00:01:12;26.80;92.60
40638;DHT22;26336;44.696;10.622;2023-07-30T00:04:16;26.80;92.70
40638;DHT22;26336;44.696;10.622;2023-07-30T00:07:20;26.80;93.10
40638;DHT22;26336;44.696;10.622;2023-07-30T00:10:24;26.80;93.00
40638;DHT22;26336;44.696;10.622;2023-07-30T00:13:28;26.80;93.00
40638;DHT22;26336;44.696;10.622;2023-07-30T00:16:31;26.80;93.10
40638;DHT22;26336;44.696;10.622;2023-07-30T00:19:36;26.80;93.20
40638;DHT22;26336;44.696;10.622;2023-07-30T00:22:40;26.80;93.30
40638;DHT22;26336;44.696;10.622;2023-07-30T00:25:44;26.80;93.50
40638;DHT22;26336;44.696;10.622;2023-07-30T00:28:47;26.80;93.80
40638;DHT22;26336;44.696;10.622;2023-07-30T00:31:51;26.80;94.70
40638;DHT22;26336;44.696;10.622;2023-07-30T00:34:55;26.80;95.70
40638;DHT22;26336;44.696;10.622;2023-07-30T00:38:00;26.70;96.10
40638;DHT22;26336;44.696;10.622;2023-07-30T00:41:04;26.70;96.20
40638;DHT22;26336;44.696;10.622;2023-07-30T00:44:08;26.60;96.00
40638;DHT22;26336;44.696;10.622;2023-07-30T00:47:13;26.50;95.80
40638;DHT22;26336;44.696;10.622;2023-07-30T00:50:18;26.50;95.60
40638;DHT22;26336;44.696;10.622;2023-07-30T00:53:23;26.40;95.20
40638;DHT22;26336;44.696;10.622;2023-07-30T00:56:28;26.30;95.10
40638;DHT22;26336;44.696;10.622;2023-07-30T00:59:33;26.30;95.00
40638;DHT22;26336;44.696;10.622;2023-07-30T01:02:37;26.20;94.90
40638;DHT22;26336;44.696;10.622;2023-07-30T01:05:41;26.10;94.90
40638;DHT22;26336;44.696;10.622;2023-07-30T01:08:46;26.10;94.90
40638;DHT22;26336;44.696;10.622;2023-07-30T01:11:51;26.00;94.90
40638;DHT22;26336;44.696;10.622;2023-07-30T01:14:59;26.00;95.00
40638;DHT22;26336;44.696;10.622;2023-07-30T01:18:03;26.00;95.00
40638;DHT22;26336;44.696;10.622;2023-07-30T01:21:07;25.90;95.20
40638;DHT22;26336;44.696;10.622;2023-07-30T01:24:11;25.90;95.50
40638;DHT22;26336;44.696;10.622;2023-07-30T01:27:28;25.80;95.70
40638;DHT22;26336;44.696;10.622;2023-07-30T01:30:38;25.70;96.00
40638;DHT22;26336;44.696;10.622;2023-07-30T01:33:48;25.60;96.30
40638;DHT22;26336;44.696;10.622;2023-07-30T01:36:54;25.60;96.40
40638;DHT22;26336;44.696;10.622;2023-07-30T01:40:00;25.60;96.50
40638;DHT22;26336;44.696;10.622;2023-07-30T01:43:05;25.60;96.60
40638;DHT22;26336;44.696;10.622;2023-07-30T01:46:09;25.60;96.70
40638;DHT22;26336;44.696;10.622;2023-07-30T01:49:13;25.60;96.70
40638;DHT22;26336;44.696;10.622;2023-07-30T01:52:16;25.60;96.80
40638;DHT22;26336;44.696;10.622;2023-07-30T01:55:21;25.60;96.80
40638;DHT22;26336;44.696;10.622;2023-07-30T01:58:25;25.50;96.70
40638;DHT22;26336;44.696;10.622;2023-07-30T02:01:29;25.60;96.70
40638;DHT22;26336;44.696;10.622;2023-07-30T02:04:33;25.50;96.80
40638;DHT22;26336;44.696;10.622;2023-07-30T02:07:38;25.50;96.90
40638;DHT22;26336;44.696;10.622;2023-07-30T02:10:42;25.50;97.00
40638;DHT22;26336;44.696;10.622;2023-07-30T02:13:46;25.50;96.90
40638;DHT22;26336;44.696;10.622;2023-07-30T02:16:50;25.50;96.90
40638;DHT22;26336;44.696;10.622;2023-07-30T02:19:54;25.40;96.80
40638;DHT22;26336;44.696;10.622;2023-07-30T02:22:58;25.40;96.70
40638;DHT22;26336;44.696;10.622;2023-07-30T02:26:03;25.30;96.70
40638;DHT22;26336;44.696;10.622;2023-07-30T02:29:07;25.20;96.70
40638;DHT22;26336;44.696;10.622;2023-07-30T02:32:11;25.20;96.70
40638;DHT22;26336;44.696;10.622;2023-07-30T02:35:15;25.20;96.60
40638;DHT22;26336;44.696;10.622;2023-07-30T02:38:19;25.20;96.60
40638;DHT22;26336;44.696;10.622;2023-07-30T02:41:23;25.20;96.50
40638;DHT22;26336;44.696;10.622;2023-07-30T02:44:27;25.20;96.50
40638;DHT22;26336;44.696;10.622;2023-07-30T02:47:31;25.20;96.50
40638;DHT22;26336;44.696;10.622;2023-07-30T02:50:35;25.20;96.40
40638;DHT22;26336;44.696;10.622;2023-07-30T02:53:39;25.20;96.40
40638;DHT22;26336;44.696;10.622;2023-07-30T02:56:43;25.10;96.40
40638;DHT22;26336;44.696;10.622;2023-07-30T02:59:47;25.10;96.30
40638;DHT22;26336;44.696;10.622;2023-07-30T03:02:53;25.10;96.30
40638;DHT22;26336;44.696;10.622;2023-07-30T03:05:57;25.10;96.40
40638;DHT22;26336;44.696;10.622;2023-07-30T03:09:11;25.10;96.30
40638;DHT22;26336;44.696;10.622;2023-07-30T03:12:15;25.10;96.40
40638;DHT22;26336;44.696;10.622;2023-07-30T03:15:19;25.10;96.40
40638;DHT22;26336;44.696;10.622;2023-07-30T03:18:24;25.10;96.30
40638;DHT22;26336;44.696;10.622;2023-07-30T03:21:27;25.00;96.30
40638;DHT22;26336;44.696;10.622;2023-07-30T03:24:31;25.00;96.30
40638;DHT22;26336;44.696;10.622;2023-07-30T03:27:35;25.10;96.30
40638;DHT22;26336;44.696;10.622;2023-07-30T03:30:39;25.00;96.30
40638;DHT22;26336;44.696;10.622;2023-07-30T03:33:43;25.00;96.30
40638;DHT22;26336;44.696;10.622;2023-07-30T03:36:47;25.00;96.30
40638;DHT22;26336;44.696;10.622;2023-07-30T03:39:51;25.00;96.30
40638;DHT22;26336;44.696;10.622;2023-07-30T03:42:55;25.00;96.30
40638;DHT22;26336;44.696;10.622;2023-07-30T03:45:59;25.00;96.20
40638;DHT22;26336;44.696;10.622;2023-07-30T03:49:04;25.00;96.30
40638;DHT22;26336;44.696;10.622;2023-07-30T03:52:08;24.90;96.30
40638;DHT22;26336;44.696;10.622;2023-07-30T03:55:11;24.90;96.30
40638;DHT22;26336;44.696;10.622;2023-07-30T03:58:16;24.90;96.30
40638;DHT22;26336;44.696;10.622;2023-07-30T04:01:20;24.90;96.40
40638;DHT22;26336;44.696;10.622;2023-07-30T04:04:24;24.90;96.50
40638;DHT22;26336;44.696;10.622;2023-07-30T04:07:28;24.90;96.60
40638;DHT22;26336;44.696;10.622;2023-07-30T04:10:32;24.90;96.70
40638;DHT22;26336;44.696;10.622;2023-07-30T04:13:36;24.90;96.80
40638;DHT22;26336;44.696;10.622;2023-07-30T04:16:40;24.90;96.80
40638;DHT22;26336;44.696;10.622;2023-07-30T04:19:45;24.90;96.90
40638;DHT22;26336;44.696;10.622;2023-07-30T04:22:49;24.80;97.00
40638;DHT22;26336;44.696;10.622;2023-07-30T04:25:53;24.80;97.10
40638;DHT22;26336;44.696;10.622;2023-07-30T04:28:57;24.70;97.10
40638;DHT22;26336;44.696;10.622;2023-07-30T04:32:01;24.70;97.20
40638;DHT22;26336;44.696;10.622;2023-07-30T04:35:05;24.60;97.60
40638;DHT22;26336;44.696;10.622;2023-07-30T04:38:10;24.60;97.60
40638;DHT22;26336;44.696;10.622;2023-07-30T04:41:15;24.60;97.60
40638;DHT22;26336;44.696;10.622;2023-07-30T04:44:25;24.60;97.60
40638;DHT22;26336;44.696;10.622;2023-07-30T04:47:31;24.70;97.70
40638;DHT22;26336;44.696;10.622;2023-07-30T04:50:35;24.70;97.70
40638;DHT22;26336;44.696;10.622;2023-07-30T04:53:39;24.70;97.70
40638;DHT22;26336;44.696;10.622;2023-07-30T04:56:44;24.70;97.70
40638;DHT22;26336;44.696;10.622;2023-07-30T04:59:48;24.70;97.70
40638;DHT22;26336;44.696;10.622;2023-07-30T05:02:55;24.70;97.80
40638;DHT22;26336;44.696;10.622;2023-07-30T05:05:59;24.70;97.90
40638;DHT22;26336;44.696;10.622;2023-07-30T05:09:07;24.80;98.10
40638;DHT22;26336;44.696;10.622;2023-07-30T05:12:11;24.70;98.10
40638;DHT22;26336;44.696;10.622;2023-07-30T05:15:15;24.70;98.20
40638;DHT22;26336;44.696;10.622;2023-07-30T05:18:19;24.70;98.20
40638;DHT22;26336;44.696;10.622;2023-07-30T05:21:23;24.70;98.30
40638;DHT22;26336;44.696;10.622;2023-07-30T05:24:28;24.70;98.40
40638;DHT22;26336;44.696;10.622;2023-07-30T05:27:33;24.70;98.40
40638;DHT22;26336;44.696;10.622;2023-07-30T05:30:37;24.70;98.70
40638;DHT22;26336;44.696;10.622;2023-07-30T05:33:41;24.40;99.00
40638;DHT22;26336;44.696;10.622;2023-07-30T05:36:45;24.20;99.40
40638;DHT22;26336;44.696;10.622;2023-07-30T05:39:49;24.30;99.30
40638;DHT22;26336;44.696;10.622;2023-07-30T05:42:54;24.40;99.30
40638;DHT22;26336;44.696;10.622;2023-07-30T05:45:58;24.40;99.10
40638;DHT22;26336;44.696;10.622;2023-07-30T05:49:01;24.50;99.20
40638;DHT22;26336;44.696;10.622;2023-07-30T05:52:05;24.50;99.20
40638;DHT22;26336;44.696;10.622;2023-07-30T05:55:10;24.60;99.30
40638;DHT22;26336;44.696;10.622;2023-07-30T05:58:14;24.50;99.80
40638;DHT22;26336;44.696;10.622;2023-07-30T06:01:18;24.40;99.80
40638;DHT22;26336;44.696;10.622;2023-07-30T06:04:23;24.50;99.90
40638;DHT22;26336;44.696;10.622;2023-07-30T06:07:27;24.50;99.70
40638;DHT22;26336;44.696;10.622;2023-07-30T06:10:37;24.50;99.80
40638;DHT22;26336;44.696;10.622;2023-07-30T06:13:41;24.60;99.90
40638;DHT22;26336;44.696;10.622;2023-07-30T06:16:45;24.60;99.60
40638;DHT22;26336;44.696;10.622;2023-07-30T06:19:49;24.50;99.50
40638;DHT22;26336;44.696;10.622;2023-07-30T06:22:53;24.50;99.40
40638;DHT22;26336;44.696;10.622;2023-07-30T06:25:57;24.60;99.50
40638;DHT22;26336;44.696;10.622;2023-07-30T06:29:01;24.60;99.50
40638;DHT22;26336;44.696;10.622;2023-07-30T06:32:06;24.60;99.50
40638;DHT22;26336;44.696;10.622;2023-07-30T06:35:10;24.60;99.50
40638;DHT22;26336;44.696;10.622;2023-07-30T06:38:14;24.60;99.60
40638;DHT22;26336;44.696;10.622;2023-07-30T06:41:18;24.60;99.50
40638;DHT22;26336;44.696;10.622;2023-07-30T06:44:23;24.60;99.70
40638;DHT22;26336;44.696;10.622;2023-07-30T06:47:29;24.60;99.70
40638;DHT22;26336;44.696;10.622;2023-07-30T06:50:32;24.60;99.80
40638;DHT22;26336;44.696;10.622;2023-07-30T06:53:36;24.50;99.90
40638;DHT22;26336;44.696;10.622;2023-07-30T06:56:43;24.60;99.90
40638;DHT22;26336;44.696;10.622;2023-07-30T06:59:47;24.70;99.80
40638;DHT22;26336;44.696;10.622;2023-07-30T07:02:51;24.70;99.80
40638;DHT22;26336;44.696;10.622;2023-07-30T07:05:56;24.80;99.60
40638;DHT22;26336;44.696;10.622;2023-07-30T07:09:00;24.80;99.50
40638;DHT22;26336;44.696;10.622;2023-07-30T07:12:04;24.80;99.40
40638;DHT22;26336;44.696;10.622;2023-07-30T07:15:09;24.90;99.40
40638;DHT22;26336;44.696;10.622;2023-07-30T07:18:13;25.00;99.40
40638;DHT22;26336;44.696;10.622;2023-07-30T07:21:17;25.00;99.30
40638;DHT22;26336;44.696;10.622;2023-07-30T07:24:21;25.00;99.10
40638;DHT22;26336;44.696;10.622;2023-07-30T07:27:25;25.10;99.00
40638;DHT22;26336;44.696;10.622;2023-07-30T07:30:29;25.10;98.90
40638;DHT22;26336;44.696;10.622;2023-07-30T07:33:33;25.10;98.90
40638;DHT22;26336;44.696;10.622;2023-07-30T07:36:37;25.20;98.80
40638;DHT22;26336;44.696;10.622;2023-07-30T07:39:42;25.20;98.70
40638;DHT22;26336;44.696;10.622;2023-07-30T07:42:46;25.20;98.60
40638;DHT22;26336;44.696;10.622;2023-07-30T07:45:50;25.30;98.70
40638;DHT22;26336;44.696;10.622;2023-07-30T07:48:54;25.40;98.50
40638;DHT22;26336;44.696;10.622;2023-07-30T07:51:58;25.40;98.50
40638;DHT22;26336;44.696;10.622;2023-07-30T07:55:04;25.50;98.40
40638;DHT22;26336;44.696;10.622;2023-07-30T07:58:08;25.50;98.20
40638;DHT22;26336;44.696;10.622;2023-07-30T08:01:12;25.50;98.00
40638;DHT22;26336;44.696;10.622;2023-07-30T08:04:16;25.50;98.00
40638;DHT22;26336;44.696;10.622;2023-07-30T08:07:20;25.50;98.00
40638;DHT22;26336;44.696;10.622;2023-07-30T08:10:23;25.50;97.90
40638;DHT22;26336;44.696;10.622;2023-07-30T08:13:28;25.60;98.00
40638;DHT22;26336;44.696;10.622;2023-07-30T08:16:32;25.60;98.10
40638;DHT22;26336;44.696;10.622;2023-07-30T08:19:36;25.70;97.90
40638;DHT22;26336;44.696;10.622;2023-07-30T08:22:40;25.70;97.90
40638;DHT22;26336;44.696;10.622;2023-07-30T08:25:44;25.80;97.90
40638;DHT22;26336;44.696;10.622;2023-07-30T08:28:48;25.90;97.70
40638;DHT22;26336;44.696;10.622;2023-07-30T08:31:53;25.90;97.80
40638;DHT22;26336;44.696;10.622;2023-07-30T08:34:57;25.90;97.90
40638;DHT22;26336;44.696;10.622;2023-07-30T08:38:01;26.00;98.20
40638;DHT22;26336;44.696;10.622;2023-07-30T08:41:05;26.00;98.00
40638;DHT22;26336;44.696;10.622;2023-07-30T08:44:09;26.10;97.90
40638;DHT22;26336;44.696;10.622;2023-07-30T08:47:14;26.20;97.80
40638;DHT22;26336;44.696;10.622;2023-07-30T08:50:18;26.30;97.90
40638;DHT22;26336;44.696;10.622;2023-07-30T08:53:24;26.30;97.70
40638;DHT22;26336;44.696;10.622;2023-07-30T08:56:30;26.40;97.90
40638;DHT22;26336;44.696;10.622;2023-07-30T08:59:42;26.40;97.70
40638;DHT22;26336;44.696;10.622;2023-07-30T09:02:57;26.40;97.70
40638;DHT22;26336;44.696;10.622;2023-07-30T09:06:31;26.50;97.80
40638;DHT22;26336;44.696;10.622;2023-07-30T09:09:37;26.60;97.90
40638;DHT22;26336;44.696;10.622;2023-07-30T09:12:40;26.60;97.70
40638;DHT22;26336;44.696;10.622;2023-07-30T09:15:48;26.70;97.50
40638;DHT22;26336;44.696;10.622;2023-07-30T09:18:52;26.70;97.20
40638;DHT22;26336;44.696;10.622;2023-07-30T09:21:57;26.80;97.00
40638;DHT22;26336;44.696;10.622;2023-07-30T09:25:02;26.80;96.70
40638;DHT22;26336;44.696;10.622;2023-07-30T09:28:06;26.90;96.70
40638;DHT22;26336;44.696;10.622;2023-07-30T09:31:10;27.00;96.70
40638;DHT22;26336;44.696;10.622;2023-07-30T09:34:18;27.00;96.40
40638;DHT22;26336;44.696;10.622;2023-07-30T09:37:22;27.10;96.40
40638;DHT22;26336;44.696;10.622;2023-07-30T09:40:35;27.20;96.50
40638;DHT22;26336;44.696;10.622;2023-07-30T09:43:40;27.30;96.30
40638;DHT22;26336;44.696;10.622;2023-07-30T09:46:50;27.30;95.90
40638;DHT22;26336;44.696;10.622;2023-07-30T09:49:54;27.40;95.70
40638;DHT22;26336;44.696;10.622;2023-07-30T09:53:02;27.50;95.60
40638;DHT22;26336;44.696;10.622;2023-07-30T09:56:06;27.50;95.60
40638;DHT22;26336;44.696;10.622;2023-07-30T09:59:11;27.60;95.60
40638;DHT22;26336;44.696;10.622;2023-07-30T10:02:16;27.70;95.40
40638;DHT22;26336;44.696;10.622;2023-07-30T10:05:24;27.80;95.50
40638;DHT22;26336;44.696;10.622;2023-07-30T10:08:41;27.80;95.30
40638;DHT22;26336;44.696;10.622;2023-07-30T10:11:45;27.80;95.10
40638;DHT22;26336;44.696;10.622;2023-07-30T10:14:50;27.90;95.20
40638;DHT22;26336;44.696;10.622;2023-07-30T10:17:57;27.90;95.10
40638;DHT22;26336;44.696;10.622;2023-07-30T10:21:01;28.00;95.10
40638;DHT22;26336;44.696;10.622;2023-07-30T10:24:06;28.00;95.30
40638;DHT22;26336;44.696;10.622;2023-07-30T10:27:23;28.10;95.20
40638;DHT22;26336;44.696;10.622;2023-07-30T10:30:32;28.10;94.90
40638;DHT22;26336;44.696;10.622;2023-07-30T10:33:51;28.20;95.40
40638;DHT22;26336;44.696;10.622;2023-07-30T10:36:57;28.40;95.10
40638;DHT22;26336;44.696;10.622;2023-07-30T10:40:04;28.40;94.80
40638;DHT22;26336;44.696;10.622;2023-07-30T10:43:19;28.40;94.80
40638;DHT22;26336;44.696;10.622;2023-07-30T10:46:24;28.40;95.10
40638;DHT22;26336;44.696;10.622;2023-07-30T10:49:30;28.40;94.90
40638;DHT22;26336;44.696;10.622;2023-07-30T10:52:39;28.50;95.00
40638;DHT22;26336;44.696;10.622;2023-07-30T10:55:43;28.50;95.10
40638;DHT22;26336;44.696;10.622;2023-07-30T10:58:52;28.50;94.70
40638;DHT22;26336;44.696;10.622;2023-07-30T11:01:58;28.50;94.80
40638;DHT22;26336;44.696;10.622;2023-07-30T11:05:20;28.50;94.80
40638;DHT22;26336;44.696;10.622;2023-07-30T11:08:37;28.60;94.60
40638;DHT22;26336;44.696;10.622;2023-07-30T11:11:41;28.60;94.50
40638;DHT22;26336;44.696;10.622;2023-07-30T11:14:46;28.70;94.40
40638;DHT22;26336;44.696;10.622;2023-07-30T11:17:54;28.70;94.20
40638;DHT22;26336;44.696;10.622;2023-07-30T11:24:12;28.80;94.50
40638;DHT22;26336;44.696;10.622;2023-07-30T11:27:16;28.90;94.50
40638;DHT22;26336;44.696;10.622;2023-07-30T11:30:21;29.00;94.20
40638;DHT22;26336;44.696;10.622;2023-07-30T11:33:27;28.90;94.30
40638;DHT22;26336;44.696;10.622;2023-07-30T11:36:31;29.00;94.40
40638;DHT22;26336;44.696;10.622;2023-07-30T11:39:36;29.10;94.00
40638;DHT22;26336;44.696;10.622;2023-07-30T11:42:40;29.10;94.00
40638;DHT22;26336;44.696;10.622;2023-07-30T11:45:46;29.10;94.10
40638;DHT22;26336;44.696;10.622;2023-07-30T11:48:52;29.00;93.90
40638;DHT22;26336;44.696;10.622;2023-07-30T11:52:10;29.00;94.00
40638;DHT22;26336;44.696;10.622;2023-07-30T11:55:14;28.90;94.00
40638;DHT22;26336;44.696;10.622;2023-07-30T11:58:18;29.00;94.00
40638;DHT22;26336;44.696;10.622;2023-07-30T12:01:24;29.00;94.00
40638;DHT22;26336;44.696;10.622;2023-07-30T12:04:42;29.00;93.90
40638;DHT22;26336;44.696;10.622;2023-07-30T12:07:47;29.00;94.20
40638;DHT22;26336;44.696;10.622;2023-07-30T12:10:51;29.10;94.10
40638;DHT22;26336;44.696;10.622;2023-07-30T12:13:56;29.10;93.90
40638;DHT22;26336;44.696;10.622;2023-07-30T12:17:04;29.10;94.00
40638;DHT22;26336;44.696;10.622;2023-07-30T12:20:09;29.20;94.20
40638;DHT22;26336;44.696;10.622;2023-07-30T12:23:14;29.40;94.40
40638;DHT22;26336;44.696;10.622;2023-07-30T12:26:18;29.60;93.60
40638;DHT22;26336;44.696;10.622;2023-07-30T12:29:22;29.60;93.60
40638;DHT22;26336;44.696;10.622;2023-07-30T12:32:26;29.60;93.30
40638;DHT22;26336;44.696;10.622;2023-07-30T12:35:32;29.60;93.30
40638;DHT22;26336;44.696;10.622;2023-07-30T12:38:36;29.60;93.60
40638;DHT22;26336;44.696;10.622;2023-07-30T12:41:40;29.60;93.30
40638;DHT22;26336;44.696;10.622;2023-07-30T12:44:44;29.60;93.40
40638;DHT22;26336;44.696;10.622;2023-07-30T12:47:48;29.60;93.30
40638;DHT22;26336;44.696;10.622;2023-07-30T12:50:53;29.70;93.60
40638;DHT22;26336;44.696;10.622;2023-07-30T12:54:03;29.70;93.60
40638;DHT22;26336;44.696;10.622;2023-07-30T12:57:07;29.70;93.60
40638;DHT22;26336;44.696;10.622;2023-07-30T13:00:15;29.70;93.30
40638;DHT22;26336;44.696;10.622;2023-07-30T13:03:21;29.70;93.50
40638;DHT22;26336;44.696;10.622;2023-07-30T13:06:25;29.60;93.50
40638;DHT22;26336;44.696;10.622;2023-07-30T13:09:30;29.60;93.60
40638;DHT22;26336;44.696;10.622;2023-07-30T13:12:37;29.50;93.60
40638;DHT22;26336;44.696;10.622;2023-07-30T13:15:40;29.30;93.70
40638;DHT22;26336;44.696;10.622;2023-07-30T13:18:45;29.20;94.20
40638;DHT22;26336;44.696;10.622;2023-07-30T13:21:52;29.20;94.00
40638;DHT22;26336;44.696;10.622;2023-07-30T13:24:56;29.40;93.90
40638;DHT22;26336;44.696;10.622;2023-07-30T13:28:01;29.50;93.60
40638;DHT22;26336;44.696;10.622;2023-07-30T13:34:38;29.70;94.10
40638;DHT22;26336;44.696;10.622;2023-07-30T13:37:43;29.80;93.60
40638;DHT22;26336;44.696;10.622;2023-07-30T13:40:47;29.90;93.50
40638;DHT22;26336;44.696;10.622;2023-07-30T13:43:51;29.90;93.40
40638;DHT22;26336;44.696;10.622;2023-07-30T13:47:02;29.80;93.30
40638;DHT22;26336;44.696;10.622;2023-07-30T13:50:06;29.80;93.30
40638;DHT22;26336;44.696;10.622;2023-07-30T13:53:10;29.70;93.20
40638;DHT22;26336;44.696;10.622;2023-07-30T13:56:16;29.70;93.50
40638;DHT22;26336;44.696;10.622;2023-07-30T13:59:20;29.70;93.70
40638;DHT22;26336;44.696;10.622;2023-07-30T14:02:24;29.80;93.50
40638;DHT22;26336;44.696;10.622;2023-07-30T14:05:30;29.80;93.50
40638;DHT22;26336;44.696;10.622;2023-07-30T14:08:35;29.90;93.70
40638;DHT22;26336;44.696;10.622;2023-07-30T14:11:39;29.90;93.60
40638;DHT22;26336;44.696;10.622;2023-07-30T14:14:46;30.00;93.30
40638;DHT22;26336;44.696;10.622;2023-07-30T14:17:52;30.10;93.40
40638;DHT22;26336;44.696;10.622;2023-07-30T14:20:58;30.00;93.20
40638;DHT22;26336;44.696;10.622;2023-07-30T14:24:05;30.00;93.40
40638;DHT22;26336;44.696;10.622;2023-07-30T14:27:09;30.00;93.80
40638;DHT22;26336;44.696;10.622;2023-07-30T14:30:13;30.00;93.60
40638;DHT22;26336;44.696;10.622;2023-07-30T14:33:17;30.00;93.50
40638;DHT22;26336;44.696;10.622;2023-07-30T14:36:24;29.80;93.50
40638;DHT22;26336;44.696;10.622;2023-07-30T14:39:28;29.80;93.40
40638;DHT22;26336;44.696;10.622;2023-07-30T14:42:32;29.80;93.30
40638;DHT22;26336;44.696;10.622;2023-07-30T14:45:36;29.80;93.60
40638;DHT22;26336;44.696;10.622;2023-07-30T14:48:43;29.80;93.50
40638;DHT22;26336;44.696;10.622;2023-07-30T14:51:47;29.90;93.70
40638;DHT22;26336;44.696;10.622;2023-07-30T14:54:54;30.00;93.20
40638;DHT22;26336;44.696;10.622;2023-07-30T14:57:58;29.90;93.30
40638;DHT22;26336;44.696;10.622;2023-07-30T15:01:04;29.90;93.20
40638;DHT22;26336;44.696;10.622;2023-07-30T15:04:09;29.90;93.20
40638;DHT22;26336;44.696;10.622;2023-07-30T15:07:14;29.90;93.20
40638;DHT22;26336;44.696;10.622;2023-07-30T15:10:20;29.80;93.50
40638;DHT22;26336;44.696;10.622;2023-07-30T15:13:24;29.80;93.20
40638;DHT22;26336;44.696;10.622;2023-07-30T15:16:28;29.70;93.30
40638;DHT22;26336;44.696;10.622;2023-07-30T15:19:32;29.70;93.50
40638;DHT22;26336;44.696;10.622;2023-07-30T15:22:36;29.70;93.40
40638;DHT22;26336;44.696;10.622;2023-07-30T15:25:41;29.70;93.40
40638;DHT22;26336;44.696;10.622;2023-07-30T15:28:44;29.90;93.10
40638;DHT22;26336;44.696;10.622;2023-07-30T15:31:52;29.90;92.90
40638;DHT22;26336;44.696;10.622;2023-07-30T15:34:56;30.00;92.60
40638;DHT22;26336;44.696;10.622;2023-07-30T15:38:00;29.90;92.90
40638;DHT22;26336;44.696;10.622;2023-07-30T15:41:14;29.90;92.90
40638;DHT22;26336;44.696;10.622;2023-07-30T15:44:19;30.00;92.90
40638;DHT22;26336;44.696;10.622;2023-07-30T15:47:23;30.00;92.80
40638;DHT22;26336;44.696;10.622;2023-07-30T15:50:33;29.90;93.10
40638;DHT22;26336;44.696;10.622;2023-07-30T15:57:25;29.90;93.30
40638;DHT22;26336;44.696;10.622;2023-07-30T16:00:30;29.90;93.10
40638;DHT22;26336;44.696;10.622;2023-07-30T16:03:34;29.90;93.00
40638;DHT22;26336;44.696;10.622;2023-07-30T16:06:39;29.80;93.10
40638;DHT22;26336;44.696;10.622;2023-07-30T16:09:43;29.80;93.20
40638;DHT22;26336;44.696;10.622;2023-07-30T16:12:47;29.80;93.60
40638;DHT22;26336;44.696;10.622;2023-07-30T16:15:50;29.80;93.50
40638;DHT22;26336;44.696;10.622;2023-07-30T16:18:54;29.90;93.10
40638;DHT22;26336;44.696;10.622;2023-07-30T16:21:59;30.10;92.90
40638;DHT22;26336;44.696;10.622;2023-07-30T16:25:04;30.10;92.80
40638;DHT22;26336;44.696;10.622;2023-07-30T16:28:08;30.00;92.80
40638;DHT22;26336;44.696;10.622;2023-07-30T16:31:12;29.90;93.10
40638;DHT22;26336;44.696;10.622;2023-07-30T16:34:15;30.00;92.90
40638;DHT22;26336;44.696;10.622;2023-07-30T16:37:20;30.00;93.00
40638;DHT22;26336;44.696;10.622;2023-07-30T16:40:23;30.00;93.40
40638;DHT22;26336;44.696;10.622;2023-07-30T16:43:27;30.10;93.00
40638;DHT22;26336;44.696;10.622;2023-07-30T16:46:31;30.00;93.10
40638;DHT22;26336;44.696;10.622;2023-07-30T16:49:35;30.10;93.00
40638;DHT22;26336;44.696;10.622;2023-07-30T16:52:39;30.00;93.00
40638;DHT22;26336;44.696;10.622;2023-07-30T16:55:43;29.90;93.00
40638;DHT22;26336;44.696;10.622;2023-07-30T16:58:47;29.80;93.30
40638;DHT22;26336;44.696;10.622;2023-07-30T17:01:55;29.80;93.50
40638;DHT22;26336;44.696;10.622;2023-07-30T17:04:59;29.80;93.10
40638;DHT22;26336;44.696;10.622;2023-07-30T17:08:09;29.80;93.30
40638;DHT22;26336;44.696;10.622;2023-07-30T17:11:19;29.80;93.30
40638;DHT22;26336;44.696;10.622;2023-07-30T17:14:24;29.80;93.30
40638;DHT22;26336;44.696;10.622;2023-07-30T17:17:30;29.80;93.30
40638;DHT22;26336;44.696;10.622;2023-07-30T17:20:34;29.80;93.20
40638;DHT22;26336;44.696;10.622;2023-07-30T17:23:45;29.70;93.30
40638;DHT22;26336;44.696;10.622;2023-07-30T17:26:54;29.60;93.40
40638;DHT22;26336;44.696;10.622;2023-07-30T17:30:06;29.60;93.80
40638;DHT22;26336;44.696;10.622;2023-07-30T17:33:10;29.70;93.60
40638;DHT22;26336;44.696;10.622;2023-07-30T17:36:14;29.70;93.30
40638;DHT22;26336;44.696;10.622;2023-07-30T17:39:18;29.70;93.30
40638;DHT22;26336;44.696;10.622;2023-07-30T17:42:22;29.60;93.50
40638;DHT22;26336;44.696;10.622;2023-07-30T17:45:27;29.50;93.70
40638;DHT22;26336;44.696;10.622;2023-07-30T17:48:34;29.50;93.60
40638;DHT22;26336;44.696;10.622;2023-07-30T17:51:38;29.40;93.60
40638;DHT22;26336;44.696;10.622;2023-07-30T17:54:43;29.40;93.80
40638;DHT22;26336;44.696;10.622;2023-07-30T17:57:46;29.30;93.90
40638;DHT22;26336;44.696;10.622;2023-07-30T18:00:53;29.40;94.10
40638;DHT22;26336;44.696;10.622;2023-07-30T18:03:57;29.40;94.30
40638;DHT22;26336;44.696;10.622;2023-07-30T18:07:01;29.40;94.00
40638;DHT22;26336;44.696;10.622;2023-07-30T18:10:05;29.40;94.00
40638;DHT22;26336;44.696;10.622;2023-07-30T18:13:10;29.40;94.00
40638;DHT22;26336;44.696;10.622;2023-07-30T18:16:16;29.30;94.00
40638;DHT22;26336;44.696;10.622;2023-07-30T18:19:21;29.30;94.20
40638;DHT22;26336;44.696;10.622;2023-07-30T18:22:27;29.20;94.20
40638;DHT22;26336;44.696;10.622;2023-07-30T18:25:32;29.30;94.10
40638;DHT22;26336;44.696;10.622;2023-07-30T18:28:36;29.20;94.20
40638;DHT22;26336;44.696;10.622;2023-07-30T18:31:43;29.20;94.20
40638;DHT22;26336;44.696;10.622;2023-07-30T18:34:47;29.10;94.10
40638;DHT22;26336;44.696;10.622;2023-07-30T18:37:56;29.10;94.20
40638;DHT22;26336;44.696;10.622;2023-07-30T18:41:07;29.10;94.20
40638;DHT22;26336;44.696;10.622;2023-07-30T18:44:14;29.10;94.50
40638;DHT22;26336;44.696;10.622;2023-07-30T18:47:18;29.10;94.50
40638;DHT22;26336;44.696;10.622;2023-07-30T18:50:22;29.10;94.60
40638;DHT22;26336;44.696;10.622;2023-07-30T18:53:27;29.20;94.60
40638;DHT22;26336;44.696;10.622;2023-07-30T18:56:34;29.10;94.50
40638;DHT22;26336;44.696;10.622;2023-07-30T18:59:38;29.10;94.70
40638;DHT22;26336;44.696;10.622;2023-07-30T19:02:43;29.20;94.80
40638;DHT22;26336;44.696;10.622;2023-07-30T19:05:54;29.10;94.80
40638;DHT22;26336;44.696;10.622;2023-07-30T19:09:10;29.10;94.90
40638;DHT22;26336;44.696;10.622;2023-07-30T19:12:14;29.10;94.90
40638;DHT22;26336;44.696;10.622;2023-07-30T19:15:19;29.10;94.90
40638;DHT22;26336;44.696;10.622;2023-07-30T19:18:24;29.00;94.90
40638;DHT22;26336;44.696;10.622;2023-07-30T19:21:31;29.00;94.90